Time;durP1;ratioP1;P1;durP2;ratioP2;P2;SDS_P1;SDS_P2;PMS_P1;PMS_P2;Temp;Humidity;BMP_temperature;BMP_pressure;BME280_temperature;BME280_humidity;BME280_pressure;Samples;Min_cycle;Max_cycle;Signal;HPM_P1;HPM_P2
2024/01/16 00:00:48;;;;;;;2.00;1.13;;;;;;;;;;4769221;30;20094;-94
2024/01/16 00:03:22;;;;;;;5.95;2.10;;;;;;;;;;4768844;30;20066;-94
2024/01/16 00:06:07;;;;;;;3.35;1.25;;;;;;;;;;4769141;30;20064;-96
2024/01/16 00:08:33;;;;;;;7.60;1.42;;;;;;;;;;4762492;30;20538;-95
2024/01/16 00:10:59;;;;;;;15.00;1.80;;;;;;;;;;4774531;29;20055;-94
2024/01/16 00:13:28;;;;;;;2.33;0.90;;;;;;;;;;4766428;30;20094;-95
2024/01/16 00:15:56;;;;;;;3.55;0.68;;;;;;;;;;4766078;30;20174;-95
2024/01/16 00:18:22;;;;;;;4.72;0.77;;;;;;;;;;4765888;30;20106;-94
2024/01/16 00:20:48;;;;;;;4.05;0.90;;;;;;;;;;4768088;30;20052;-94
2024/01/16 00:23:14;;;;;;;1.10;0.98;;;;;;;;;;4753640;30;20071;-94
2024/01/16 00:25:41;;;;;;;8.65;1.20;;;;;;;;;;4768961;30;20114;-94
2024/01/16 00:28:07;;;;;;;1.63;0.90;;;;;;;;;;4768630;30;20152;-94
2024/01/16 00:30:34;;;;;;;1.58;1.48;;;;;;;;;;4768595;30;20051;-93
2024/01/16 00:33:00;;;;;;;6.45;1.33;;;;;;;;;;4768633;30;20055;-93
2024/01/16 00:35:26;;;;;;;0.88;0.73;;;;;;;;;;4768509;30;20051;-94
2024/01/16 00:37:52;;;;;;;1.55;1.00;;;;;;;;;;4765405;30;20063;-93
2024/01/16 00:40:18;;;;;;;5.10;1.10;;;;;;;;;;4768644;30;20475;-93
2024/01/16 00:42:44;;;;;;;5.20;0.95;;;;;;;;;;4768581;30;20568;-93
2024/01/16 00:45:10;;;;;;;1.17;1.00;;;;;;;;;;4768324;30;20418;-92
2024/01/16 00:47:36;;;;;;;4.35;1.05;;;;;;;;;;4771919;30;20059;-93
2024/01/16 00:50:03;;;;;;;7.20;2.17;;;;;;;;;;4760437;30;20092;-93
2024/01/16 00:52:29;;;;;;;5.07;0.90;;;;;;;;;;4766942;30;20153;-92
2024/01/16 00:54:55;;;;;;;3.75;1.13;;;;;;;;;;4769512;30;20063;-93
2024/01/16 00:57:21;;;;;;;4.47;1.20;;;;;;;;;;4768989;30;20060;-94
2024/01/16 00:59:47;;;;;;;6.00;1.00;;;;;;;;;;4739579;30;20059;-93
2024/01/16 01:02:14;;;;;;;6.93;1.48;;;;;;;;;;4739517;30;20056;-92
2024/01/16 01:04:41;;;;;;;4.65;1.80;;;;;;;;;;4753748;30;20055;-93
2024/01/16 01:07:10;;;;;;;2.85;1.27;;;;;;;;;;4770997;30;20060;-94
2024/01/16 01:09:36;;;;;;;9.63;1.83;;;;;;;;;;4771969;30;20059;-92
2024/01/16 01:12:02;;;;;;;3.00;1.35;;;;;;;;;;4772027;30;20064;-93
2024/01/16 01:14:29;;;;;;;6.03;1.30;;;;;;;;;;4772017;30;20062;-93
2024/01/16 01:16:55;;;;;;;4.88;1.67;;;;;;;;;;4760034;30;20071;-92
2024/01/16 01:19:22;;;;;;;3.25;1.25;;;;;;;;;;4757008;30;20059;-93
2024/01/16 01:21:49;;;;;;;1.70;1.13;;;;;;;;;;4771430;30;20517;-93
2024/01/16 01:24:15;;;;;;;2.38;1.33;;;;;;;;;;4763167;30;20063;-94
2024/01/16 01:26:44;;;;;;;4.22;1.42;;;;;;;;;;4771415;30;20464;-91
2024/01/16 01:29:11;;;;;;;2.40;1.60;;;;;;;;;;4771806;30;20142;-94
2024/01/16 01:31:37;;;;;;;2.13;0.98;;;;;;;;;;4756649;30;20048;-93
2024/01/16 01:34:04;;;;;;;4.40;1.50;;;;;;;;;;4770870;30;20070;-93
2024/01/16 01:36:30;;;;;;;2.17;0.90;;;;;;;;;;4771291;30;20083;-91
2024/01/16 01:38:56;;;;;;;4.68;1.17;;;;;;;;;;4771202;30;20052;-92
2024/01/16 01:41:22;;;;;;;4.28;1.60;;;;;;;;;;4754495;30;20063;-92
2024/01/16 01:43:48;;;;;;;2.10;0.95;;;;;;;;;;4756513;30;20498;-92
2024/01/16 01:46:21;;;;;;;5.05;1.60;;;;;;;;;;4726908;30;20055;-93
2024/01/16 01:48:48;;;;;;;2.42;0.70;;;;;;;;;;4756374;30;20106;-93
2024/01/16 01:51:14;;;;;;;3.08;1.02;;;;;;;;;;4756545;30;20136;-94
2024/01/16 01:53:42;;;;;;;6.07;2.65;;;;;;;;;;4756324;30;20172;-94
2024/01/16 01:56:10;;;;;;;4.10;1.23;;;;;;;;;;4755731;30;20066;-93
2024/01/16 01:58:40;;;;;;;3.30;0.80;;;;;;;;;;4755763;30;20196;-94
2024/01/16 02:01:10;;;;;;;2.40;1.88;;;;;;;;;;4756148;30;20055;-94
2024/01/16 02:03:39;;;;;;;6.53;2.10;;;;;;;;;;4756275;30;20117;-93
2024/01/16 02:06:06;;;;;;;2.33;0.93;;;;;;;;;;4756226;30;20143;-94
2024/01/16 02:08:33;;;;;;;8.45;1.75;;;;;;;;;;4756383;30;20052;-93
2024/01/16 02:10:59;;;;;;;5.07;2.58;;;;;;;;;;4755154;30;20062;-91
2024/01/16 02:13:25;;;;;;;4.68;1.52;;;;;;;;;;4752641;30;20066;-94
2024/01/16 02:15:51;;;;;;;20.00;1.92;;;;;;;;;;4726265;30;20126;-93
2024/01/16 02:18:18;;;;;;;4.80;1.55;;;;;;;;;;4738717;30;20146;-93
2024/01/16 02:20:44;;;;;;;8.20;1.55;;;;;;;;;;4738245;30;20064;-93
2024/01/16 02:23:10;;;;;;;4.90;1.23;;;;;;;;;;4737874;30;20060;-92
2024/01/16 02:25:37;;;;;;;2.53;1.20;;;;;;;;;;4738363;30;20059;-93
2024/01/16 02:28:03;;;;;;;0.80;0.80;;;;;;;;;;4708704;30;20052;-93
2024/01/16 02:30:29;;;;;;;4.53;1.00;;;;;;;;;;4749069;30;20076;-93
2024/01/16 02:32:56;;;;;;;1.55;1.05;;;;;;;;;;4739893;30;20129;-94
2024/01/16 02:35:22;;;;;;;12.25;1.45;;;;;;;;;;4740994;30;20059;-94
2024/01/16 02:37:48;;;;;;;1.42;0.98;;;;;;;;;;4740231;30;20124;-92
2024/01/16 02:40:14;;;;;;;2.78;1.02;;;;;;;;;;4752529;30;20075;-94
2024/01/16 02:42:40;;;;;;;3.85;0.90;;;;;;;;;;4723026;30;20076;-91
2024/01/16 02:45:06;;;;;;;2.90;1.27;;;;;;;;;;4738705;30;20133;-91
2024/01/16 02:47:32;;;;;;;6.05;1.23;;;;;;;;;;4751157;30;20510;-95
2024/01/16 02:50:00;;;;;;;5.28;1.10;;;;;;;;;;4752740;30;20067;-93
2024/01/16 02:52:26;;;;;;;10.13;1.35;;;;;;;;;;4754751;30;20066;-91
2024/01/16 02:54:52;;;;;;;8.40;1.38;;;;;;;;;;4755113;30;20520;-91
2024/01/16 02:57:18;;;;;;;4.22;1.40;;;;;;;;;;4755042;30;20060;-92
2024/01/16 02:59:44;;;;;;;6.13;1.20;;;;;;;;;;4754842;30;20055;-92
2024/01/16 03:02:11;;;;;;;8.82;1.63;;;;;;;;;;4754550;30;20059;-91
2024/01/16 03:04:37;;;;;;;3.03;1.50;;;;;;;;;;4755041;30;20087;-92
2024/01/16 03:07:03;;;;;;;3.42;1.55;;;;;;;;;;4753688;30;20121;-94
2024/01/16 03:09:29;;;;;;;2.13;1.50;;;;;;;;;;4739361;30;20665;-92
2024/01/16 03:11:56;;;;;;;5.22;1.42;;;;;;;;;;4725410;30;20060;-92
2024/01/16 03:14:22;;;;;;;9.30;2.05;;;;;;;;;;4739403;30;20594;-91
2024/01/16 03:16:48;;;;;;;12.75;2.22;;;;;;;;;;4739736;30;20091;-93
2024/01/16 03:19:14;;;;;;;4.68;1.15;;;;;;;;;;4724620;30;20067;-92
2024/01/16 03:21:41;;;;;;;3.55;1.30;;;;;;;;;;4754333;30;20063;-92
2024/01/16 03:24:07;;;;;;;4.50;1.48;;;;;;;;;;4754367;30;20478;-92
2024/01/16 03:26:33;;;;;;;4.30;1.45;;;;;;;;;;4754395;30;20409;-91
2024/01/16 03:29:00;;;;;;;4.93;1.95;;;;;;;;;;4754446;30;20073;-92
2024/01/16 03:31:26;;;;;;;3.30;1.50;;;;;;;;;;4751170;30;20059;-93
2024/01/16 03:33:52;;;;;;;6.35;1.70;;;;;;;;;;4722738;30;20075;-91
2024/01/16 03:36:18;;;;;;;7.85;1.30;;;;;;;;;;4736639;30;20384;-90
2024/01/16 03:38:44;;;;;;;5.85;1.45;;;;;;;;;;4736614;30;20070;-91
2024/01/16 03:41:13;;;;;;;6.25;1.45;;;;;;;;;;4735979;30;20055;-92
2024/01/16 03:43:40;;;;;;;3.03;1.77;;;;;;;;;;4736147;30;20064;-94
2024/01/16 03:46:07;;;;;;;8.20;2.58;;;;;;;;;;4747632;30;20064;-93
2024/01/16 03:48:33;;;;;;;5.80;1.42;;;;;;;;;;4736304;30;20105;-92
2024/01/16 03:50:59;;;;;;;5.50;1.70;;;;;;;;;;4732381;30;20171;-93
2024/01/16 03:53:25;;;;;;;5.90;1.35;;;;;;;;;;4754309;30;20056;-93
2024/01/16 03:55:51;;;;;;;6.50;1.42;;;;;;;;;;4739364;30;20142;-91
2024/01/16 03:58:17;;;;;;;3.35;1.33;;;;;;;;;;4753818;30;20395;-91
2024/01/16 04:00:44;;;;;;;3.55;1.27;;;;;;;;;;4739330;30;20469;-91
2024/01/16 04:03:11;;;;;;;9.88;2.00;;;;;;;;;;4753841;30;20056;-92
2024/01/16 04:05:37;;;;;;;4.80;1.52;;;;;;;;;;4752720;30;20094;-91
2024/01/16 04:08:03;;;;;;;3.00;1.60;;;;;;;;;;4738899;30;20067;-92
2024/01/16 04:10:29;;;;;;;5.00;2.13;;;;;;;;;;4753641;30;20066;-93
2024/01/16 04:12:55;;;;;;;5.78;1.45;;;;;;;;;;4724788;30;20151;-92
2024/01/16 04:15:22;;;;;;;3.58;1.17;;;;;;;;;;4738890;30;20051;-92
2024/01/16 04:17:48;;;;;;;6.18;1.50;;;;;;;;;;4753329;30;20055;-92
2024/01/16 04:20:14;;;;;;;7.22;2.55;;;;;;;;;;4738010;30;20079;-92
2024/01/16 04:22:40;;;;;;;6.63;1.25;;;;;;;;;;4740890;30;20051;-92
2024/01/16 04:25:06;;;;;;;11.93;1.63;;;;;;;;;;4745816;30;20062;-93
2024/01/16 04:27:32;;;;;;;3.78;1.35;;;;;;;;;;4753021;30;20059;-91
2024/01/16 04:29:59;;;;;;;2.80;1.38;;;;;;;;;;4738637;30;20515;-91
2024/01/16 04:32:25;;;;;;;4.85;1.90;;;;;;;;;;4738672;30;20055;-91
2024/01/16 04:34:51;;;;;;;9.13;1.80;;;;;;;;;;4706320;30;20075;-93
2024/01/16 04:37:17;;;;;;;7.70;1.98;;;;;;;;;;4735523;30;20060;-91
2024/01/16 04:39:43;;;;;;;5.43;1.77;;;;;;;;;;4736898;30;20122;-93
2024/01/16 04:42:09;;;;;;;4.88;1.38;;;;;;;;;;4735646;30;20414;-91
2024/01/16 04:44:35;;;;;;;5.53;1.70;;;;;;;;;;4740901;30;20576;-91
2024/01/16 04:47:04;;;;;;;5.43;2.13;;;;;;;;;;4738289;30;20128;-92
2024/01/16 04:49:30;;;;;;;5.05;1.80;;;;;;;;;;4752882;30;20047;-92
2024/01/16 04:51:57;;;;;;;4.45;1.98;;;;;;;;;;4752881;30;20625;-91
2024/01/16 04:54:23;;;;;;;5.32;1.52;;;;;;;;;;4753539;30;20117;-94
2024/01/16 04:56:49;;;;;;;10.75;1.48;;;;;;;;;;4750729;30;20059;-94
2024/01/16 04:59:15;;;;;;;7.22;2.00;;;;;;;;;;4729451;30;20090;-91
2024/01/16 05:01:41;;;;;;;10.07;1.88;;;;;;;;;;4735023;30;20566;-91
2024/01/16 05:04:08;;;;;;;9.82;1.50;;;;;;;;;;4728119;30;20048;-92
2024/01/16 05:06:34;;;;;;;11.88;2.00;;;;;;;;;;4753253;30;20052;-92
2024/01/16 05:09:00;;;;;;;4.97;1.38;;;;;;;;;;4753203;30;20052;-92
2024/01/16 05:11:26;;;;;;;4.65;1.77;;;;;;;;;;4752242;30;20063;-93
2024/01/16 05:13:57;;;;;;;5.22;2.00;;;;;;;;;;4747403;30;20217;-91
2024/01/16 05:16:25;;;;;;;4.00;1.48;;;;;;;;;;4735595;30;20056;-94
2024/01/16 05:18:51;;;;;;;6.40;1.70;;;;;;;;;;4735988;30;20481;-93
2024/01/16 05:21:17;;;;;;;10.15;3.30;;;;;;;;;;4754822;30;20072;-93
2024/01/16 05:23:43;;;;;;;6.32;2.17;;;;;;;;;;4749821;30;20060;-93
2024/01/16 05:26:09;;;;;;;7.20;2.00;;;;;;;;;;4753013;30;20413;-92
2024/01/16 05:28:36;;;;;;;10.48;1.77;;;;;;;;;;4723120;30;20048;-95
2024/01/16 05:31:02;;;;;;;5.57;2.17;;;;;;;;;;4757924;30;20060;-90
2024/01/16 05:33:28;;;;;;;8.88;2.17;;;;;;;;;;4727623;30;20055;-94
2024/01/16 05:35:56;;;;;;;9.88;1.83;;;;;;;;;;4743008;30;20052;-93
2024/01/16 05:38:22;;;;;;;5.53;1.90;;;;;;;;;;4742143;30;20064;-93
2024/01/16 05:40:48;;;;;;;3.80;1.77;;;;;;;;;;4741166;30;20060;-93
2024/01/16 05:43:15;;;;;;;5.05;1.48;;;;;;;;;;4741631;30;20071;-93
2024/01/16 05:45:41;;;;;;;11.77;1.45;;;;;;;;;;4755442;30;20076;-94
2024/01/16 05:48:08;;;;;;;4.75;1.42;;;;;;;;;;4741377;30;20146;-94
2024/01/16 05:50:37;;;;;;;8.90;2.95;;;;;;;;;;4742159;30;20113;-94
2024/01/16 05:53:03;;;;;;;7.10;1.85;;;;;;;;;;4726975;30;20052;-94
2024/01/16 05:55:35;;;;;;;7.70;1.83;;;;;;;;;;4740591;30;20060;-92
2024/01/16 05:58:27;;;;;;;7.38;1.83;;;;;;;;;;4740539;30;20499;-92
2024/01/16 06:00:53;;;;;;;7.63;1.85;;;;;;;;;;4727618;30;20422;-94
2024/01/16 06:03:20;;;;;;;8.60;2.78;;;;;;;;;;4726394;30;20048;-93
2024/01/16 06:05:49;;;;;;;8.85;2.28;;;;;;;;;;4738789;30;20052;-93
2024/01/16 06:08:18;;;;;;;3.92;1.73;;;;;;;;;;4739001;30;20070;-92
2024/01/16 06:10:46;;;;;;;6.00;2.55;;;;;;;;;;4708998;30;20352;-93
2024/01/16 06:13:12;;;;;;;5.50;1.38;;;;;;;;;;4739304;30;20064;-92
2024/01/16 06:15:38;;;;;;;6.82;1.38;;;;;;;;;;4754206;30;20056;-93
2024/01/16 06:18:04;;;;;;;11.10;2.25;;;;;;;;;;4741289;30;20059;-94
2024/01/16 06:20:30;;;;;;;4.03;1.63;;;;;;;;;;4739949;30;20079;-92
2024/01/16 06:22:57;;;;;;;5.07;1.90;;;;;;;;;;4755784;30;20067;-93
2024/01/16 06:25:23;;;;;;;13.82;2.33;;;;;;;;;;4755975;30;20426;-94
2024/01/16 06:27:49;;;;;;;7.82;2.05;;;;;;;;;;4755108;30;20056;-93
2024/01/16 06:30:15;;;;;;;7.35;1.42;;;;;;;;;;4743682;30;20066;-94
2024/01/16 06:32:41;;;;;;;5.80;1.35;;;;;;;;;;4741144;30;20699;-93
2024/01/16 06:35:08;;;;;;;4.10;1.85;;;;;;;;;;4741000;30;20410;-93
2024/01/16 06:37:34;;;;;;;5.82;1.33;;;;;;;;;;4749825;30;20390;-93
2024/01/16 06:40:00;;;;;;;4.45;1.23;;;;;;;;;;4741083;30;20054;-93
2024/01/16 06:42:26;;;;;;;6.22;1.50;;;;;;;;;;4740506;30;20105;-93
2024/01/16 06:44:52;;;;;;;2.85;1.40;;;;;;;;;;4739968;30;20056;-92
2024/01/16 06:47:18;;;;;;;6.50;1.92;;;;;;;;;;4754001;30;20055;-93
2024/01/16 06:49:44;;;;;;;2.65;1.52;;;;;;;;;;4726205;30;20522;-93
2024/01/16 06:52:10;;;;;;;7.05;1.52;;;;;;;;;;4740716;30;20070;-93
2024/01/16 06:54:36;;;;;;;12.02;1.70;;;;;;;;;;4740557;30;20063;-93
2024/01/16 06:57:02;;;;;;;3.90;1.27;;;;;;;;;;4754755;30;20059;-92
2024/01/16 06:59:29;;;;;;;6.32;1.83;;;;;;;;;;4755014;30;20150;-94
2024/01/16 07:01:55;;;;;;;7.13;1.83;;;;;;;;;;4750075;30;20071;-92
2024/01/16 07:04:21;;;;;;;6.82;1.95;;;;;;;;;;4755003;30;20060;-93
2024/01/16 07:06:47;;;;;;;8.23;1.92;;;;;;;;;;4755242;30;20059;-92
2024/01/16 07:09:13;;;;;;;10.60;1.70;;;;;;;;;;4755643;30;20087;-93
2024/01/16 07:11:42;;;;;;;2.53;1.65;;;;;;;;;;4748875;30;20063;-93
2024/01/16 07:14:09;;;;;;;6.03;2.47;;;;;;;;;;4740108;30;20059;-93
2024/01/16 07:16:35;;;;;;;10.38;1.63;;;;;;;;;;4736132;30;20139;-93
2024/01/16 07:19:02;;;;;;;7.18;2.40;;;;;;;;;;4753882;30;20050;-91
2024/01/16 07:21:28;;;;;;;6.68;1.42;;;;;;;;;;4725220;30;20468;-94
2024/01/16 07:23:54;;;;;;;6.38;2.13;;;;;;;;;;4742578;30;20115;-93
2024/01/16 07:26:21;;;;;;;3.92;2.15;;;;;;;;;;4741693;30;20055;-94
2024/01/16 07:28:47;;;;;;;5.65;1.75;;;;;;;;;;4741081;30;20059;-93
2024/01/16 07:31:14;;;;;;;2.35;1.60;;;;;;;;;;4756971;30;20110;-91
2024/01/16 07:33:40;;;;;;;3.53;1.42;;;;;;;;;;4745020;30;20112;-91
2024/01/16 07:36:07;;;;;;;2.70;1.80;;;;;;;;;;4745668;30;20062;-92
2024/01/16 07:38:33;;;;;;;12.30;2.60;;;;;;;;;;4743810;30;20059;-93
2024/01/16 07:40:59;;;;;;;7.30;1.88;;;;;;;;;;4740965;30;20572;-95
2024/01/16 07:43:25;;;;;;;8.57;1.52;;;;;;;;;;4739596;30;20426;-93
2024/01/16 07:45:52;;;;;;;2.30;1.63;;;;;;;;;;4725057;30;20067;-95
2024/01/16 07:48:18;;;;;;;14.07;2.55;;;;;;;;;;4738096;30;20055;-93
2024/01/16 07:50:45;;;;;;;13.15;2.65;;;;;;;;;;4731371;30;20071;-93
2024/01/16 07:53:12;;;;;;;5.35;1.58;;;;;;;;;;4722331;30;20072;-95
2024/01/16 07:55:38;;;;;;;4.25;1.58;;;;;;;;;;4722474;30;20052;-94
2024/01/16 07:58:04;;;;;;;5.38;1.45;;;;;;;;;;4722013;30;20060;-94
2024/01/16 08:00:31;;;;;;;7.03;3.15;;;;;;;;;;4722179;30;20418;-93
2024/01/16 08:02:57;;;;;;;9.57;1.70;;;;;;;;;;4722562;30;20055;-93
2024/01/16 08:05:25;;;;;;;6.78;2.47;;;;;;;;;;4742319;30;20466;-93
2024/01/16 08:07:51;;;;;;;7.90;1.52;;;;;;;;;;4736266;30;20060;-95
2024/01/16 08:10:17;;;;;;;3.63;1.65;;;;;;;;;;4736362;30;20090;-93
2024/01/16 08:12:44;;;;;;;6.47;1.40;;;;;;;;;;4736795;30;20056;-95
2024/01/16 08:15:10;;;;;;;6.13;1.50;;;;;;;;;;4736335;30;20059;-94
2024/01/16 08:17:36;;;;;;;4.28;1.55;;;;;;;;;;4736475;30;20063;-93
2024/01/16 08:20:03;;;;;;;5.10;1.52;;;;;;;;;;4736897;30;20514;-93
2024/01/16 08:22:29;;;;;;;2.28;1.27;;;;;;;;;;4722254;30;20063;-93
2024/01/16 08:24:55;;;;;;;8.65;1.48;;;;;;;;;;4736635;30;20063;-94
2024/01/16 08:27:22;;;;;;;4.55;1.48;;;;;;;;;;4736711;30;20092;-94
2024/01/16 08:29:50;;;;;;;4.32;1.83;;;;;;;;;;4736797;30;20069;-95
2024/01/16 08:32:17;;;;;;;6.05;1.67;;;;;;;;;;4708009;30;20066;-95
2024/01/16 08:34:46;;;;;;;3.55;1.60;;;;;;;;;;4736577;30;20055;-95
2024/01/16 08:37:14;;;;;;;4.00;1.45;;;;;;;;;;4747796;30;20075;-95
2024/01/16 08:39:41;;;;;;;9.55;2.20;;;;;;;;;;4739610;30;20086;-95
2024/01/16 08:42:07;;;;;;;5.38;1.10;;;;;;;;;;4739180;30;20060;-95
2024/01/16 08:44:35;;;;;;;4.13;1.10;;;;;;;;;;4739775;30;20052;-95
2024/01/16 08:47:12;;;;;;;;;;;;;;;;;;;;;
2024/01/16 08:49:43;;;;;;;1.05;0.95;;;;;;;;;;4753676;30;20078;-95
2024/01/16 08:52:28;;;;;;;6.22;1.20;;;;;;;;;;4740611;30;20426;-95
2024/01/16 08:55:00;;;;;;;2.47;1.20;;;;;;;;;;4707293;30;20159;-96
2024/01/16 08:57:49;;;;;;;6.95;1.55;;;;;;;;;;4737854;30;20056;-94
2024/01/16 09:01:02;;;;;;;1.75;1.23;;;;;;;;;;4725839;30;20117;-95
2024/01/16 09:03:47;;;;;;;3.60;1.30;;;;;;;;;;4718307;30;20083;-95
2024/01/16 09:06:35;;;;;;;2.22;1.38;;;;;;;;;;4707158;30;20057;-95
2024/01/16 09:09:04;;;;;;;2.83;1.33;;;;;;;;;;4713558;30;20056;-95
2024/01/16 09:11:43;;;;;;;2.67;1.63;;;;;;;;;;4716589;30;20094;-95
2024/01/16 09:14:14;;;;;;;3.50;1.70;;;;;;;;;;4726007;30;20048;-95
2024/01/16 09:16:42;;;;;;;2.45;1.13;;;;;;;;;;4726998;30;20161;-95
2024/01/16 09:19:09;;;;;;;3.53;1.15;;;;;;;;;;4727051;30;20072;-96
2024/01/16 09:21:37;;;;;;;3.15;1.40;;;;;;;;;;4784684;24;20056;-95
2024/01/16 09:24:03;;;;;;;6.10;1.88;;;;;;;;;;4786797;24;20048;-95
2024/01/16 09:26:31;;;;;;;12.75;1.58;;;;;;;;;;4782094;30;20056;-96
2024/01/16 09:28:58;;;;;;;3.15;1.17;;;;;;;;;;4767412;30;20502;-95
2024/01/16 09:31:24;;;;;;;3.90;1.65;;;;;;;;;;4777604;30;20059;-96
2024/01/16 09:33:51;;;;;;;6.95;1.60;;;;;;;;;;4779028;30;20063;-95
2024/01/16 09:36:19;;;;;;;8.43;1.73;;;;;;;;;;4778533;30;20109;-95
2024/01/16 09:38:51;;;;;;;7.22;2.65;;;;;;;;;;4770698;30;20056;-94
2024/01/16 09:41:19;;;;;;;7.05;1.27;;;;;;;;;;4755327;30;20382;-94
2024/01/16 09:43:46;;;;;;;5.18;1.48;;;;;;;;;;4755524;30;20136;-94
2024/01/16 09:46:13;;;;;;;1.95;1.30;;;;;;;;;;4778257;30;20062;-93
2024/01/16 09:48:39;;;;;;;3.75;1.40;;;;;;;;;;4774558;30;20056;-93
2024/01/16 09:51:18;;;;;;;3.67;1.05;;;;;;;;;;4769497;30;20248;-94
2024/01/16 09:53:44;;;;;;;2.97;1.35;;;;;;;;;;4768359;30;20060;-95
2024/01/16 09:56:15;;;;;;;2.45;1.02;;;;;;;;;;4736647;30;20073;-93
2024/01/16 09:58:41;;;;;;;1.23;0.93;;;;;;;;;;4739132;30;20124;-94
2024/01/16 10:01:07;;;;;;;5.18;1.40;;;;;;;;;;4739957;30;20494;-96
2024/01/16 10:03:35;;;;;;;2.97;1.10;;;;;;;;;;4739782;30;20284;-96
2024/01/16 10:06:07;;;;;;;0.90;0.80;;;;;;;;;;4754023;30;20052;-95
2024/01/16 10:08:33;;;;;;;3.63;1.20;;;;;;;;;;4755162;30;20057;-95
2024/01/16 10:11:00;;;;;;;3.55;1.08;;;;;;;;;;4753087;30;20146;-95
2024/01/16 10:13:27;;;;;;;4.53;1.23;;;;;;;;;;4738042;30;20056;-95
2024/01/16 10:15:55;;;;;;;3.80;1.17;;;;;;;;;;4739215;30;20064;-95
2024/01/16 10:18:25;;;;;;;2.35;1.17;;;;;;;;;;4737781;30;20051;-95
2024/01/16 10:20:52;;;;;;;4.30;1.40;;;;;;;;;;4755401;30;20073;-94
2024/01/16 10:23:29;;;;;;;1.25;0.93;;;;;;;;;;4755440;30;20061;-94
2024/01/16 10:26:08;;;;;;;3.95;1.92;;;;;;;;;;4768518;30;20561;-94
2024/01/16 10:28:35;;;;;;;1.05;0.82;;;;;;;;;;4739388;30;20146;-94
2024/01/16 10:31:05;;;;;;;3.25;1.67;;;;;;;;;;4740918;30;20045;-94
2024/01/16 10:33:31;;;;;;;4.43;0.82;;;;;;;;;;4743450;30;20067;-95
2024/01/16 10:36:28;;;;;;;6.85;1.38;;;;;;;;;;4742935;30;20052;-93
2024/01/16 10:39:03;;;;;;;4.05;1.25;;;;;;;;;;4745288;30;20056;-93
2024/01/16 10:41:29;;;;;;;4.30;1.48;;;;;;;;;;4765812;30;20052;-94
2024/01/16 10:44:06;;;;;;;2.13;1.27;;;;;;;;;;4736180;30;20122;-94
2024/01/16 10:46:32;;;;;;;5.28;1.50;;;;;;;;;;4736128;30;20060;-96
2024/01/16 10:49:03;;;;;;;1.20;0.95;;;;;;;;;;4735482;30;20068;-94
2024/01/16 10:51:29;;;;;;;2.85;1.02;;;;;;;;;;4735433;30;20511;-94
2024/01/16 10:54:00;;;;;;;7.05;1.45;;;;;;;;;;4735870;30;20056;-93
2024/01/16 10:56:30;;;;;;;2.80;1.65;;;;;;;;;;4750193;30;20474;-94
2024/01/16 10:59:07;;;;;;;3.17;1.20;;;;;;;;;;4735586;30;20048;-94
2024/01/16 11:01:33;;;;;;;3.50;1.80;;;;;;;;;;4752727;30;20114;-94
2024/01/16 11:04:01;;;;;;;3.03;1.60;;;;;;;;;;4752654;30;20052;-95
2024/01/16 11:06:28;;;;;;;2.10;1.90;;;;;;;;;;4751139;30;20063;-95
2024/01/16 11:08:54;;;;;;;7.32;2.17;;;;;;;;;;4750072;30;20083;-94
2024/01/16 11:11:21;;;;;;;2.45;1.45;;;;;;;;;;4749663;30;20092;-95
2024/01/16 11:13:47;;;;;;;3.38;1.70;;;;;;;;;;4735774;30;20147;-95
2024/01/16 11:16:13;;;;;;;3.45;2.03;;;;;;;;;;4735606;30;20056;-95
2024/01/16 11:18:40;;;;;;;2.17;1.45;;;;;;;;;;4750143;30;20056;-96
2024/01/16 11:21:16;;;;;;;4.35;1.92;;;;;;;;;;4749404;30;20545;-95
2024/01/16 11:23:43;;;;;;;2.63;1.60;;;;;;;;;;4751743;30;20075;-93
2024/01/16 11:26:28;;;;;;;3.85;1.85;;;;;;;;;;4752220;30;20067;-96
2024/01/16 11:28:59;;;;;;;7.22;1.77;;;;;;;;;;4751566;30;20056;-92
2024/01/16 11:31:28;;;;;;;2.30;1.50;;;;;;;;;;4751420;30;20058;-93
2024/01/16 11:33:54;;;;;;;4.38;1.70;;;;;;;;;;4752028;30;20102;-94
2024/01/16 11:36:39;;;;;;;2.80;1.55;;;;;;;;;;4752132;30;20108;-93
2024/01/16 11:39:06;;;;;;;2.83;1.88;;;;;;;;;;4751611;30;20057;-93
2024/01/16 11:42:10;;;;;;;3.25;2.22;;;;;;;;;;4752039;30;20142;-92
2024/01/16 11:44:41;;;;;;;4.50;2.10;;;;;;;;;;4721484;30;20055;-93
2024/01/16 11:47:08;;;;;;;4.55;1.92;;;;;;;;;;4736708;30;20060;-92
2024/01/16 11:49:35;;;;;;;3.28;1.80;;;;;;;;;;4751522;30;20095;-94
2024/01/16 11:52:01;;;;;;;1.77;1.50;;;;;;;;;;4781975;29;20510;-93
2024/01/16 11:54:28;;;;;;;3.72;1.63;;;;;;;;;;4752157;30;20075;-93
2024/01/16 11:57:08;;;;;;;1.58;1.48;;;;;;;;;;4781843;30;20052;-94
2024/01/16 11:59:40;;;;;;;1.88;1.77;;;;;;;;;;4781487;30;20056;-94
2024/01/16 12:02:09;;;;;;;2.15;1.70;;;;;;;;;;4766156;30;20057;-93
2024/01/16 12:04:36;;;;;;;7.40;1.92;;;;;;;;;;4751699;30;20179;-93
2024/01/16 12:07:02;;;;;;;4.95;3.40;;;;;;;;;;4781172;30;20400;-93
2024/01/16 12:09:30;;;;;;;3.85;1.83;;;;;;;;;;4766404;30;20118;-93
2024/01/16 12:12:03;;;;;;;6.30;2.30;;;;;;;;;;4781420;30;20063;-92
2024/01/16 12:14:30;;;;;;;5.00;1.38;;;;;;;;;;4781463;30;20155;-93
2024/01/16 12:17:15;;;;;;;2.75;1.38;;;;;;;;;;4780946;30;20071;-93
2024/01/16 12:19:43;;;;;;;8.00;2.22;;;;;;;;;;4751993;30;20056;-93
2024/01/16 12:22:12;;;;;;;7.43;2.10;;;;;;;;;;4751524;30;20056;-93
2024/01/16 12:24:39;;;;;;;1.90;1.73;;;;;;;;;;4748085;30;20112;-93
2024/01/16 12:27:08;;;;;;;3.67;1.42;;;;;;;;;;4747930;30;20065;-93
2024/01/16 12:29:34;;;;;;;7.22;2.03;;;;;;;;;;4748132;30;20123;-93
2024/01/16 12:32:14;;;;;;;14.85;1.95;;;;;;;;;;4748756;30;20069;-95
2024/01/16 12:34:47;;;;;;;5.38;1.92;;;;;;;;;;4748089;30;20522;-95
2024/01/16 12:37:14;;;;;;;6.90;2.97;;;;;;;;;;4733754;30;20535;-93
2024/01/16 12:39:41;;;;;;;6.78;2.15;;;;;;;;;;4733499;30;20092;-94
2024/01/16 12:42:09;;;;;;;5.70;2.55;;;;;;;;;;4761964;30;20061;-93
2024/01/16 12:44:35;;;;;;;3.60;2.08;;;;;;;;;;4762804;30;20052;-93
2024/01/16 12:47:02;;;;;;;10.60;5.07;;;;;;;;;;4747562;30;20079;-93
2024/01/16 12:49:28;;;;;;;5.70;2.53;;;;;;;;;;4762409;30;20140;-92
2024/01/16 12:52:13;;;;;;;3.28;2.45;;;;;;;;;;4733384;30;20075;-93
2024/01/16 12:54:39;;;;;;;4.45;3.28;;;;;;;;;;4733171;30;20057;-94
2024/01/16 12:57:06;;;;;;;9.75;3.50;;;;;;;;;;4747884;30;20138;-92
2024/01/16 12:59:32;;;;;;;9.65;3.00;;;;;;;;;;4747927;30;20087;-96
2024/01/16 13:02:00;;;;;;;9.75;4.13;;;;;;;;;;4747910;30;20075;-94
2024/01/16 13:04:26;;;;;;;4.32;3.00;;;;;;;;;;4762550;30;20052;-94
2024/01/16 13:07:01;;;;;;;7.47;3.65;;;;;;;;;;4747804;30;20056;-94
2024/01/16 13:09:27;;;;;;;5.97;3.10;;;;;;;;;;4733914;30;20220;-93
2024/01/16 13:11:58;;;;;;;7.13;3.20;;;;;;;;;;4747964;30;20076;-93
2024/01/16 13:14:24;;;;;;;7.47;2.75;;;;;;;;;;4733927;30;20139;-93
2024/01/16 13:16:55;;;;;;;12.60;4.47;;;;;;;;;;4762376;30;20522;-94
2024/01/16 13:19:22;;;;;;;6.57;3.28;;;;;;;;;;4762318;30;20056;-93
2024/01/16 13:21:49;;;;;;;8.75;3.78;;;;;;;;;;4761667;30;20063;-94
2024/01/16 13:24:17;;;;;;;9.32;3.10;;;;;;;;;;4747550;30;20490;-93
2024/01/16 13:26:43;;;;;;;11.05;3.67;;;;;;;;;;4733471;30;20068;-94
2024/01/16 13:29:09;;;;;;;6.22;3.30;;;;;;;;;;4733500;30;20536;-95
2024/01/16 13:31:35;;;;;;;7.88;3.30;;;;;;;;;;4762797;30;20064;-93
2024/01/16 13:34:01;;;;;;;4.72;3.00;;;;;;;;;;4762749;30;20064;-93
2024/01/16 13:36:27;;;;;;;9.30;4.65;;;;;;;;;;4747973;30;20071;-95
2024/01/16 13:38:54;;;;;;;13.90;3.17;;;;;;;;;;4762618;30;20150;-95
2024/01/16 13:41:21;;;;;;;7.53;3.28;;;;;;;;;;4732776;30;20064;-94
2024/01/16 13:43:49;;;;;;;6.25;3.33;;;;;;;;;;4747550;30;20505;-94
2024/01/16 13:46:17;;;;;;;7.35;4.22;;;;;;;;;;4732291;30;20052;-94
2024/01/16 13:48:44;;;;;;;7.63;3.50;;;;;;;;;;4747831;30;20064;-94
2024/01/16 13:51:10;;;;;;;8.32;3.80;;;;;;;;;;4762769;30;20056;-94
2024/01/16 13:53:36;;;;;;;7.68;3.35;;;;;;;;;;4763808;30;20140;-95
2024/01/16 13:56:02;;;;;;;11.20;3.65;;;;;;;;;;4751221;30;20148;-93
2024/01/16 13:58:28;;;;;;;10.65;3.53;;;;;;;;;;4736249;30;20060;-93
2024/01/16 14:00:55;;;;;;;8.75;3.45;;;;;;;;;;4736013;30;20158;-93
2024/01/16 14:03:21;;;;;;;6.10;2.80;;;;;;;;;;4750360;30;20135;-92
2024/01/16 14:05:47;;;;;;;5.93;4.07;;;;;;;;;;4750554;30;20065;-94
2024/01/16 14:08:14;;;;;;;8.07;3.25;;;;;;;;;;4750334;30;20049;-93
2024/01/16 14:10:40;;;;;;;7.25;3.30;;;;;;;;;;4750489;30;20208;-93
2024/01/16 14:13:06;;;;;;;3.58;2.78;;;;;;;;;;4750011;30;20056;-93
2024/01/16 14:15:32;;;;;;;11.90;4.32;;;;;;;;;;4764702;30;20132;-94
2024/01/16 14:17:59;;;;;;;4.25;2.92;;;;;;;;;;4750542;30;20061;-94
2024/01/16 14:20:26;;;;;;;5.25;2.78;;;;;;;;;;4750266;30;20518;-94
2024/01/16 14:22:53;;;;;;;3.75;2.40;;;;;;;;;;4750455;30;20087;-92
2024/01/16 14:25:19;;;;;;;11.35;2.53;;;;;;;;;;4750167;30;20091;-93
2024/01/16 14:28:04;;;;;;;8.00;2.63;;;;;;;;;;4749875;30;20453;-95
2024/01/16 14:30:30;;;;;;;;;;;;;;;;;;4735661;30;20048;-94
2024/01/16 14:32:56;;;;;;;4.95;2.13;;;;;;;;;;4765130;30;19976;-94
2024/01/16 14:35:23;;;;;;;5.75;1.77;;;;;;;;;;4764787;30;20049;-96
2024/01/16 14:37:50;;;;;;;5.35;2.10;;;;;;;;;;4765051;30;20060;-95
2024/01/16 14:40:20;;;;;;;2.22;1.65;;;;;;;;;;4765240;30;20407;-94
2024/01/16 14:42:59;;;;;;;6.22;2.63;;;;;;;;;;4764512;30;20510;-94
2024/01/16 14:45:26;;;;;;;3.58;2.00;;;;;;;;;;4735439;30;20072;-94
2024/01/16 14:47:53;;;;;;;4.22;2.20;;;;;;;;;;4749967;30;20391;-94